• Join FlightAware (Why Join?)
  • Login
  • US Flag 
01:29AM EST


 

Airport Tracker/Info


-or-


 

Live Flight TrackerFlight Track Log ✈ UAL1259 ✈ 25-Apr-2013 ✈ KORD - KLAX

Flight Track Log - Related Links

Times and Time Zones

All times are in EDT time to prevent confusion due to time zone crossing. See the UAL1259 flight status page for this flight to view local times or setup timezone preferences in your user account.

Time Position Orientation Groundspeed Altitude Reporting Facility
EDT Latitude Longitude Course Direction KTS MPH feet Rate Location/Type
03:56PM 41.9960 -87.9400 320° Northwest 171 197 1,300  Level FlightAware
03:56PM 42.0020 -87.9550 298° West 179 206 1,700 1,200 Climbing FlightAware
03:56PM 42.0020 -87.9650 270° West 194 223 1,800 1,920 Climbing FlightAware
03:56PM 42.0000 -88.0080 266° West 220 253 3,000 2,580 Climbing FlightAware
03:57PM 41.9970 -88.0420 263° West 226 260 4,200 1,800 Climbing FlightAware
03:57PM 41.9950 -88.0870 267° West 246 283 4,700 660 Climbing FlightAware
03:58PM 41.9940 -88.1080 266° West 247 284 4,700 900 Level FlightAware
03:58PM 41.9920 -88.1520 267° West 247 284 5,400 2,280 Climbing FlightAware
03:58PM 41.9910 -88.1820 267° West 242 278 6,600 2,700 Climbing FlightAware
03:59PM 41.9890 -88.2100 265° West 256 295 7,200 2,760 Climbing FlightAware
03:59PM 41.9860 -88.2670 266° West 268 308 8,900 3,300 Climbing FlightAware
04:00PM 41.9820 -88.3300 265° West 262 302 11,100 2,400 Climbing FlightAware
04:01PM 41.9970 -88.3950 287° West 292 336 12,100 1,380 Climbing FlightAware
04:01PM 42.0220 -88.4780 292° West 331 381 13,100 1,860 Climbing FlightAware
04:02PM 42.0450 -88.5540 292° West 339 390 14,800 2,400 Climbing FlightAware
04:03PM 42.0690 -88.6440 290° West 349 402 16,500 2,160 Climbing FlightAware
04:03PM 42.0680 -88.7320 269° West 364 419 17,900 2,100 Climbing FlightAware
04:04PM 42.0670 -88.8250 269° West 373 429 19,300 1,920 Climbing FlightAware
04:05PM 42.0630 -88.9320 267° West 380 437 20,700 1,860 Climbing FlightAware
04:06PM 42.0600 -89.0270 268° West 384 442 22,000 1,620 Climbing FlightAware
04:06PM 42.0560 -89.1330 267° West 390 449 23,000 660 Climbing FlightAware
04:07PM 42.0530 -89.2280 268° West 386 444 23,000 120 Level FlightAware
04:08PM 42.0500 -89.3250 268° West 387 445 23,200 1,200 Climbing FlightAware
04:08PM 42.0460 -89.4330 267° West 383 441 24,700 1,380 Climbing FlightAware
04:09PM 42.0430 -89.5300 268° West 390 449 25,200 1,080 Climbing FlightAware
04:10PM 42.0390 -89.6370 267° West 391 450 26,300 1,320 Climbing FlightAware
04:10PM 42.0370 -89.7250 268° West 397 457 27,000 1,320 Climbing FlightAware
04:11PM 42.0350 -89.8330 269° West 396 456 28,100 1,620 Climbing FlightAware
04:12PM 42.0410 -89.9430 274° West 381 438 29,500 1,680 Climbing FlightAware
04:13PM 42.0460 -90.0320 274° West 375 432 30,500 1,380 Climbing FlightAware
04:13PM 42.0520 -90.1390 274° West 372 428 31,500 1,200 Climbing FlightAware
04:14PM 42.0570 -90.2280 274° West 371 427 32,200 1,200 Climbing FlightAware
04:15PM 42.0620 -90.3200 274° West 367 422 33,100 1,200 Climbing FlightAware
04:15PM 42.0680 -90.4260 274° West 361 415 33,900 660 Climbing FlightAware
04:16PM 42.0720 -90.5030 274° West 362 417 34,000 60 Climbing FlightAware
04:17PM 42.0780 -90.6140 274° West 362 417 34,000  Level FlightAware
04:17PM 42.0810 -90.6750 274° West 362 417 34,000  Level FlightAware
04:18PM 42.0870 -90.7880 274° West 362 417 34,000  Level FlightAware
04:19PM 42.0910 -90.8800 273° West 362 417 34,000  Level FlightAware
04:19PM 42.0980 -90.9720 276° West 361 415 34,000  Level FlightAware
04:20PM 42.1130 -91.0630 283° West 360 414 34,000  Level FlightAware
04:21PM 42.1270 -91.1470 283° West 359 413 34,000  Level FlightAware
04:22PM 42.1450 -91.2490 283° West 361 415 34,000  Level FlightAware
04:22PM 42.1610 -91.3470 282° West 362 417 34,000  Level FlightAware
04:23PM 42.1740 -91.4260 283° West 363 418 34,000  Level FlightAware
04:24PM 42.1910 -91.5270 283° West 365 420 34,000  Level FlightAware
04:24PM 42.2060 -91.6170 283° West 365 420 34,000  Level FlightAware
04:25PM 42.2220 -91.7150 282° West 364 419 34,000  Level FlightAware
04:26PM 42.2380 -91.8180 282° West 363 418 34,000  Level FlightAware
04:26PM 42.2510 -91.8970 283° West 363 418 34,000  Level FlightAware
04:27PM 42.2690 -92.0070 283° West 363 418 34,000  Level FlightAware
04:28PM 42.2850 -92.1100 282° West 362 417 34,000  Level FlightAware
04:29PM 42.3020 -92.2130 283° West 362 417 34,000  Level FlightAware
04:30PM 42.3230 -92.3460 282° West 363 418 34,000  Level FlightAware
04:31PM 42.3360 -92.4310 282° West 366 421 34,000  Level FlightAware
04:31PM 42.3520 -92.5340 282° West 368 423 34,000  Level FlightAware
04:32PM 42.3660 -92.6260 282° West 369 425 34,000  Level FlightAware
04:33PM 42.3820 -92.7250 282° West 370 426 34,000  Level FlightAware
04:33PM 42.3960 -92.8170 282° West 371 427 34,000  Level FlightAware
04:34PM 42.4110 -92.9170 282° West 372 428 34,000  Level FlightAware
04:35PM 42.4250 -93.0100 282° West 373 429 34,000  Level FlightAware
04:35PM 42.4390 -93.1030 282° West 373 429 34,000  Level FlightAware
04:36PM 42.4540 -93.2040 281° West 373 429 34,000  Level FlightAware
04:37PM 42.4670 -93.2940 281° West 373 429 34,000  Level FlightAware
04:38PM 42.4830 -93.4010 281° West 373 429 34,000  Level FlightAware
04:38PM 42.4960 -93.4900 281° West 374 430 34,000  Level FlightAware
04:39PM 42.5110 -93.5930 281° West 374 430 34,000  Level FlightAware
04:40PM 42.5240 -93.6830 281° West 373 429 34,000  Level FlightAware
04:40PM 42.5380 -93.7750 282° West 373 429 34,000  Level FlightAware
04:41PM 42.5530 -93.8810 281° West 373 429 34,000  Level FlightAware
04:42PM 42.5660 -93.9720 281° West 373 429 34,000  Level FlightAware
04:42PM 42.5800 -94.0700 281° West 373 429 34,000  Level FlightAware
04:43PM 42.5920 -94.1610 280° West 373 429 34,000  Level FlightAware
04:44PM 42.6060 -94.2560 281° West 374 430 34,000  Level FlightAware
04:45PM 42.6100 -94.3860 272° West 378 435 34,000  Level FlightAware
04:45PM 42.6080 -94.4840 268° West 378 435 34,000  Level FlightAware
04:46PM 42.6070 -94.5650 269° West 378 435 34,000  Level FlightAware
04:47PM 42.6060 -94.6450 269° West 378 435 34,000  Level FlightAware
04:47PM 42.6050 -94.7260 269° West 378 435 34,000  Level FlightAware
04:48PM 42.6010 -94.9110 268° West 377 434 34,000  Level FlightAware
04:49PM 42.5990 -95.0420 269° West 376 433 34,000  Level FlightAware
04:50PM 42.5970 -95.1220 268° West 376 433 34,000  Level FlightAware
04:51PM 42.5950 -95.2020 268° West 376 433 34,000  Level FlightAware
04:52PM 42.5920 -95.3030 268° West 376 433 34,000  Level FlightAware
04:52PM 42.5900 -95.3830 268° West 376 433 34,000  Level FlightAware
04:53PM 42.5880 -95.4630 268° West 376 433 34,000  Level FlightAware
04:54PM 42.5860 -95.5440 268° West 376 433 34,000  Level FlightAware
04:54PM 42.5840 -95.6240 268° West 376 433 34,000  Level FlightAware
04:55PM 42.5810 -95.7240 268° West 376 433 34,000  Level FlightAware
04:56PM 42.5790 -95.8050 268° West 376 433 34,000  Level FlightAware
04:56PM 42.5770 -95.8850 268° West 376 433 34,000  Level FlightAware
04:57PM 42.5750 -95.9650 268° West 376 433 34,000  Level FlightAware
04:58PM 42.5730 -96.0450 268° West 376 433 34,000  Level FlightAware
04:58PM 42.5710 -96.1260 268° West 376 433 34,000  Level FlightAware
05:00PM 42.5631 -96.4706 268° West 376 433 34,000  Level Minneapolis Center
05:01PM 42.5578 -96.6108 267° West 375 432 34,000  Level Minneapolis Center
05:02PM 42.5533 -96.7531 268° West 377 434 34,000  Level Minneapolis Center
05:03PM 42.5492 -96.8936 268° West 375 432 34,000  Level Minneapolis Center
05:04PM 42.5433 -97.0342 267° West 375 432 34,000  Level Minneapolis Center
05:05PM 42.5375 -97.2017 267° West 374 430 34,000  Level Minneapolis Center
05:06PM 42.5317 -97.3436 267° West 377 434 34,000  Level Minneapolis Center
05:07PM 42.5264 -97.4844 267° West 376 433 34,000  Level Minneapolis Center
05:08PM 42.5192 -97.6267 266° West 378 435 34,000  Level Minneapolis Center
05:09PM 42.5136 -97.7678 267° West 377 434 34,000  Level Minneapolis Center
05:10PM 42.5081 -97.9172 267° West 378 435 34,000  Level Minneapolis Center
05:11PM 42.5011 -98.0589 266° West 377 434 34,000  Level Minneapolis Center
05:12PM 42.4933 -98.2281 266° West 377 434 34,000  Level Minneapolis Center
05:13PM 42.4861 -98.3689 266° West 376 433 34,000  Level Minneapolis Center
05:14PM 42.4800 -98.5111 267° West 378 435 34,000  Level Minneapolis Center
05:15PM 42.4728 -98.6525 266° West 378 435 34,000  Level Minneapolis Center
05:16PM 42.4522 -98.7917 259° West 378 435 34,000  Level Minneapolis Center
05:17PM 42.4275 -98.9294 256° West 377 434 34,000  Level Minneapolis Center
05:18PM 42.3986 -99.0922 257° West 372 428 34,000  Level Minneapolis Center
05:19PM 42.3728 -99.2283 256° West 374 430 34,000  Level Minneapolis Center
05:20PM 42.3486 -99.3631 256° West 371 427 34,000  Level Minneapolis Center
05:21PM 42.3431 -99.3900 254° West 373 429 34,000  Level Denver Center
05:22PM 42.3189 -99.5264 257° West 374 430 34,000  Level Denver Center
05:23PM 42.2883 -99.6897 256° West 374 430 34,000  Level Denver Center
05:24PM 42.2636 -99.8214 256° West 372 428 34,000  Level Denver Center
05:25PM 42.2386 -99.9506 255° West 373 429 34,000  Level Denver Center
05:26PM 42.2106 -100.1008 256° West 372 428 34,000  Level Denver Center
05:27PM 42.1864 -100.2272 256° West 367 422 34,000  Level Denver Center
05:28PM 42.1569 -100.3803 256° West 375 432 34,000  Level Denver Center
05:29PM 42.1317 -100.5081 255° West 371 427 34,000  Level Denver Center
05:30PM 42.1025 -100.6592 255° West 374 430 34,000  Level Denver Center
05:31PM 42.0767 -100.7886 255° West 374 430 34,000  Level Denver Center
05:32PM 42.0478 -100.9397 256° West 375 432 34,000  Level Denver Center
05:33PM 42.0217 -101.0706 255° West 378 435 34,000  Level Denver Center
05:34PM 41.9900 -101.2233 254° West 382 440 34,000  Level Denver Center
05:39PM 41.8351 -101.9810 254° West 382 440 34,000  Level FlightAware ADS-B
05:40PM 41.8190 -102.0570 254° West 381 438 34,000  Level FlightAware ADS-B
05:41PM 41.8045 -102.1260 254° West 383 441 34,000  Level FlightAware ADS-B
05:41PM 41.7899 -102.1960 254° West 384 442 34,000  Level FlightAware ADS-B
05:42PM 41.7747 -102.2680 254° West 384 442 34,000  Level FlightAware ADS-B
05:42PM 41.7597 -102.3380 254° West 385 443 34,000  Level FlightAware ADS-B
05:43PM 41.7446 -102.4090 254° West 387 445 34,000  Level FlightAware ADS-B
05:43PM 41.7297 -102.4790 254° West 387 445 34,000  Level FlightAware ADS-B
05:44PM 41.7141 -102.5520 254° West 389 448 34,000  Level FlightAware ADS-B
05:44PM 41.6986 -102.6240 254° West 389 448 34,000  Level FlightAware ADS-B
05:45PM 41.6832 -102.6950 254° West 389 448 34,000  Level FlightAware ADS-B
05:45PM 41.6677 -102.7660 254° West 391 450 34,000  Level FlightAware ADS-B
05:46PM 41.6526 -102.8360 254° West 390 449 34,000  Level FlightAware ADS-B
05:46PM 41.6327 -102.9270 254° West 392 451 34,000  Level FlightAware ADS-B
05:47PM 41.6174 -102.9970 254° West 393 452 34,000  Level FlightAware ADS-B
05:47PM 41.6019 -103.0670 254° West 393 452 34,000  Level FlightAware ADS-B
05:48PM 41.5859 -103.1390 253° West 394 453 34,000  Level FlightAware ADS-B
05:48PM 41.5698 -103.2110 253° West 393 452 34,000  Level FlightAware ADS-B
05:49PM 41.5545 -103.2810 254° West 392 451 34,000  Level FlightAware ADS-B
05:49PM 41.5390 -103.3500 253° West 391 450 34,000  Level FlightAware ADS-B
05:50PM 41.5232 -103.4220 254° West 390 449 34,000  Level FlightAware ADS-B
05:50PM 41.5069 -103.4940 253° West 390 449 34,000  Level FlightAware ADS-B
05:51PM 41.4904 -103.5670 253° West 390 449 34,000  Level FlightAware ADS-B
05:51PM 41.4748 -103.6360 253° West 390 449 34,000  Level FlightAware ADS-B
05:52PM 41.4588 -103.7070 253° West 391 450 34,000  Level FlightAware ADS-B
05:52PM 41.4429 -103.7770 253° West 391 450 34,000  Level FlightAware ADS-B
05:53PM 41.4270 -103.8460 253° West 391 450 34,000  Level FlightAware ADS-B
05:53PM 41.4111 -103.9160 253° West 392 451 34,000  Level FlightAware ADS-B
05:54PM 41.3949 -103.9860 253° West 393 452 34,000  Level FlightAware ADS-B
05:54PM 41.3789 -104.0560 253° West 393 452 34,000  Level FlightAware ADS-B
05:55PM 41.3626 -104.1260 253° West 393 452 34,000  Level FlightAware ADS-B
05:55PM 41.3459 -104.1990 253° West 393 452 34,000  Level FlightAware ADS-B
05:56PM 41.3297 -104.2680 253° West 394 453 34,000  Level FlightAware ADS-B
05:57PM 41.3133 -104.3380 253° West 394 453 34,000  Level FlightAware ADS-B
05:57PM 41.2971 -104.4080 253° West 393 452 34,000  Level FlightAware ADS-B
05:58PM 41.2810 -104.4770 253° West 393 452 34,000  Level FlightAware ADS-B
05:58PM 41.2642 -104.5480 253° West 393 452 34,000  Level FlightAware ADS-B
05:59PM 41.2479 -104.6170 253° West 393 452 34,000  Level FlightAware ADS-B
05:59PM 41.2314 -104.6870 253° West 394 453 34,000  Level FlightAware ADS-B
06:00PM 41.2147 -104.7570 252° West 395 455 34,000  Level FlightAware ADS-B
06:00PM 41.1928 -104.8260 247° West 396 456 34,000  Level FlightAware ADS-B
06:01PM 41.1692 -104.8950 246° West 396 456 34,000  Level FlightAware ADS-B
06:01PM 41.1461 -104.9610 245° Southwest 397 457 34,000  Level FlightAware ADS-B
06:02PM 41.1226 -105.0290 245° Southwest 398 458 34,000  Level FlightAware ADS-B
06:02PM 41.0985 -105.0990 245° Southwest 397 457 34,000  Level FlightAware ADS-B
06:03PM 41.0748 -105.1670 245° Southwest 394 453 34,000  Level FlightAware ADS-B
06:03PM 41.0482 -105.2430 245° Southwest 396 456 34,000  Level FlightAware ADS-B
06:04PM 41.0080 -105.3580 245° Southwest 397 457 34,000  Level FlightAware
06:05PM 40.9760 -105.4490 245° Southwest 395 455 34,000  Level FlightAware
06:05PM 40.9489 -105.5260 245° Southwest 396 456 34,000  Level FlightAware ADS-B
06:06PM 40.9210 -105.6050 245° Southwest 392 451 34,000  Level FlightAware ADS-B
06:06PM 40.8978 -105.6720 245° Southwest 392 451 34,000  Level FlightAware ADS-B
06:08PM 40.8450 -105.8190 245° Southwest 401 461 34,000  Level FlightAware
06:08PM 40.8140 -105.9080 245° Southwest 399 459 34,000  Level FlightAware
06:09PM 40.7860 -105.9840 244° Southwest 405 466 34,000  Level FlightAware
06:10PM 40.7510 -106.0830 245° Southwest 407 468 34,000  Level FlightAware
06:10PM 40.7130 -106.1870 244° Southwest 399 459 34,000  Level FlightAware
06:11PM 40.6780 -106.2860 245° Southwest 399 459 34,000  Level FlightAware
06:12PM 40.6370 -106.3960 244° Southwest 398 458 34,000  Level FlightAware
06:13PM 40.6020 -106.4930 245° Southwest 395 455 34,000  Level FlightAware
06:14PM 40.5600 -106.6090 245° Southwest 397 457 34,000  Level FlightAware
06:14PM 40.5220 -106.7120 244° Southwest 399 459 34,000  Level FlightAware
06:15PM 40.4900 -106.8000 244° Southwest 401 461 34,000  Level FlightAware
06:16PM 40.4570 -106.8870 244° Southwest 401 461 34,000  Level FlightAware
06:16PM 40.4300 -106.9620 245° Southwest 401 461 34,000  Level FlightAware
06:17PM 40.4020 -107.0360 244° Southwest 401 461 34,000  Level FlightAware
06:18PM 40.3740 -107.1110 244° Southwest 401 461 34,000  Level FlightAware
06:18PM 40.3470 -107.1850 244° Southwest 401 461 34,000  Level FlightAware
06:19PM 40.3120 -107.2780 244° Southwest 401 461 34,000  Level FlightAware
06:20PM 40.2850 -107.3520 244° Southwest 401 461 34,000  Level FlightAware
06:21PM 40.2570 -107.4270 244° Southwest 401 461 34,000  Level FlightAware
06:21PM 40.2290 -107.5010 244° Southwest 401 461 34,000  Level FlightAware
06:22PM 40.2020 -107.5750 244° Southwest 401 461 34,000  Level FlightAware
06:23PM 40.1670 -107.6680 244° Southwest 401 461 34,000  Level FlightAware
06:23PM 40.1390 -107.7420 244° Southwest 401 461 34,000  Level FlightAware
06:24PM 40.1120 -107.8160 245° Southwest 401 461 34,000  Level FlightAware
06:25PM 40.0840 -107.8900 244° Southwest 401 461 34,000  Level FlightAware
06:25PM 39.9739 -108.1075 244° Southwest 407 468 34,000  Level Salt Lake Center
06:26PM 39.9347 -108.1864 237° Southwest 407 468 34,000  Level Denver Center
06:27PM 39.8644 -108.3244 236° Southwest 399 459 34,000  Level Denver Center
06:28PM 39.8022 -108.4422 236° Southwest 415 478 34,000  Level Denver Center
06:29PM 39.7325 -108.5783 236° Southwest 407 468 34,000  Level Denver Center
06:30PM 39.6717 -108.6956 236° Southwest 409 471 34,000  Level Denver Center
06:31PM 39.6047 -108.8247 236° Southwest 415 478 34,000  Level Denver Center
06:32PM 39.5442 -108.9403 236° Southwest 407 468 34,000  Level Denver Center
06:33PM 39.4728 -109.0758 236° Southwest 407 468 34,000  Level Denver Center
06:34PM 39.4219 -109.1725 236° Southwest 408 470 34,000  Level Denver Center
06:35PM 39.3394 -109.3283 236° Southwest 411 473 34,000  Level Denver Center
06:36PM 39.2786 -109.4453 236° Southwest 412 474 34,000  Level Denver Center
06:37PM 39.2469 -109.5033 235° Southwest 412 474 34,000  Level Salt Lake Center
06:38PM 39.1850 -109.6217 236° Southwest 416 479 34,000  Level Salt Lake Center
06:38PM 39.1431 -109.7014 236° Southwest 420 483 34,000  Level Denver Center
06:39PM 39.0697 -109.8372 235° Southwest 413 475 34,000  Level Denver Center
06:40PM 39.0058 -109.9547 235° Southwest 416 479 34,000  Level Denver Center
06:41PM 38.9747 -110.0136 236° Southwest 416 479 34,000  Level Salt Lake Center
06:42PM 38.9100 -110.1303 235° Southwest 418 481 34,000  Level Salt Lake Center
06:42PM 38.8694 -110.2097 237° Southwest 417 480 34,000  Level Denver Center
06:43PM 38.7925 -110.3458 234° Southwest 422 486 34,000  Level Denver Center
06:44PM 38.7725 -110.3861 238° Southwest 421 484 34,000  Level Salt Lake Center
06:45PM 38.6978 -110.5217 235° Southwest 418 481 34,000  Level Salt Lake Center
06:46PM 38.6331 -110.6381 235° Southwest 418 481 34,000  Level Salt Lake Center
06:47PM 38.5700 -110.7542 235° Southwest 417 480 34,000  Level Salt Lake Center
06:48PM 38.4922 -110.8922 234° Southwest 429 494 34,000  Level Salt Lake Center
06:49PM 38.4250 -111.0136 235° Southwest 434 499 34,000  Level Salt Lake Center
06:50PM 38.3553 -111.1397 235° Southwest 435 501 34,000  Level Salt Lake Center
06:51PM 38.2842 -111.2653 234° Southwest 436 502 34,000  Level Salt Lake Center
06:52PM 38.1997 -111.4150 234° Southwest 436 502 34,000  Level Salt Lake Center
06:53PM 38.1289 -111.5403 234° Southwest 437 503 34,000  Level Salt Lake Center
06:54PM 38.0569 -111.6642 234° Southwest 437 503 34,000  Level Salt Lake Center
06:55PM 37.9842 -111.7883 233° Southwest 439 505 34,000  Level Salt Lake Center
06:56PM 37.9144 -111.9114 234° Southwest 434 499 34,000  Level Salt Lake Center
06:57PM 37.8431 -112.0347 234° Southwest 433 498 34,000  Level Salt Lake Center
06:58PM 37.7728 -112.1581 234° Southwest 433 498 34,000  Level Salt Lake Center
06:59PM 37.6883 -112.3039 234° Southwest 428 493 34,000  Level Salt Lake Center
07:00PM 37.6139 -112.4219 232° Southwest 428 493 34,000  Level Salt Lake Center
07:06PM 37.2070 -113.0530 232° Southwest 439 505 34,000  Level FlightAware
07:06PM 37.1420 -113.1530 231° Southwest 439 505 34,000  Level FlightAware
07:07PM 37.0910 -113.2310 231° Southwest 440 506 34,000  Level FlightAware
07:08PM 37.0290 -113.3250 230° Southwest 439 505 34,000  Level FlightAware
07:09PM 36.9780 -113.4020 230° Southwest 439 505 34,000  Level FlightAware
07:09PM 36.9270 -113.4810 231° Southwest 438 504 34,000  Level FlightAware
07:10PM 36.8700 -113.5660 230° Southwest 437 503 34,000  Level FlightAware
07:11PM 36.8180 -113.6450 231° Southwest 437 503 34,000  Level FlightAware
07:11PM 36.7680 -113.7210 231° Southwest 435 501 34,000  Level FlightAware
07:12PM 36.7080 -113.8110 230° Southwest 436 502 34,000  Level FlightAware
07:13PM 36.6560 -113.8890 230° Southwest 440 506 34,000  Level FlightAware
07:13PM 36.6040 -113.9670 230° Southwest 442 509 34,000  Level FlightAware
07:14PM 36.5460 -114.0530 230° Southwest 443 510 34,000  Level FlightAware
07:15PM 36.4860 -114.1430 230° Southwest 444 511 34,000  Level FlightAware
07:16PM 36.4330 -114.2210 230° Southwest 446 513 34,000  Level FlightAware
07:16PM 36.3800 -114.2990 230° Southwest 444 511 34,000  Level FlightAware
07:17PM 36.3220 -114.3850 230° Southwest 445 512 34,000  Level FlightAware
07:18PM 36.2690 -114.4640 230° Southwest 445 512 34,000  Level FlightAware
07:18PM 36.2090 -114.5520 230° Southwest 445 512 34,000  Level FlightAware
07:19PM 36.1630 -114.6200 230° Southwest 447 514 34,000  Level FlightAware
07:20PM 36.1020 -114.7090 230° Southwest 448 516 34,000  Level FlightAware
07:20PM 36.0430 -114.7940 229° Southwest 447 514 34,000  Level FlightAware
07:21PM 35.9890 -114.8730 230° Southwest 446 513 34,000  Level FlightAware
07:22PM 35.9260 -114.9580 228° Southwest 446 513 34,000  Level FlightAware
07:23PM 35.8700 -115.0340 228° Southwest 445 512 34,000  Level FlightAware
07:23PM 35.8150 -115.1080 228° Southwest 442 509 34,000  Level FlightAware
07:24PM 35.7550 -115.1910 228° Southwest 441 507 34,000  Level FlightAware
07:25PM 35.6970 -115.2640 226° Southwest 446 513 34,000  Level FlightAware
07:25PM 35.6300 -115.3430 224° Southwest 447 514 34,000  Level FlightAware
07:26PM 35.5700 -115.4140 224° Southwest 449 517 34,000  Level FlightAware
07:27PM 35.5100 -115.4850 224° Southwest 450 518 34,000  Level FlightAware
07:27PM 35.4520 -115.5550 225° Southwest 449 517 34,000  Level FlightAware
07:28PM 35.3830 -115.6360 224° Southwest 449 517 34,000  Level FlightAware
07:29PM 35.3180 -115.7130 224° Southwest 446 513 34,000 -540 Level FlightAware
07:30PM 35.2580 -115.7830 224° Southwest 442 509 33,300 -1,080 Descending FlightAware
07:30PM 35.1990 -115.8520 224° Southwest 445 512 32,600 -1,020 Descending FlightAware
07:31PM 35.1310 -115.9320 224° Southwest 442 509 31,900 -1,020 Descending FlightAware
07:32PM 35.0720 -116.0010 224° Southwest 436 502 31,200 -1,020 Descending FlightAware
07:32PM 35.0090 -116.0750 224° Southwest 427 491 30,500 -600 Descending FlightAware
07:33PM 34.9350 -116.1600 223° Southwest 432 497 30,200 -240 Descending FlightAware
07:34PM 34.8850 -116.2170 223° Southwest 432 497 30,200  Level FlightAware
07:35PM 34.8350 -116.2730 223° Southwest 432 497 30,200  Level FlightAware
07:35PM 34.7850 -116.3300 223° Southwest 432 497 30,200  Level FlightAware
07:36PM 34.7360 -116.3860 223° Southwest 432 497 30,200  Level FlightAware
07:37PM 34.6740 -116.4560 223° Southwest 432 497 30,200 -2,160 Level FlightAware
07:37PM 34.5860 -116.5640 225° Southwest 402 463 27,000 -2,520 Descending FlightAware
07:38PM 34.5340 -116.6230 223° Southwest 402 463 26,900 -120 Descending FlightAware
07:39PM 34.4880 -116.6760 224° Southwest 402 463 26,900 -1,320 Level FlightAware
07:40PM 34.4170 -116.7580 224° Southwest 401 461 25,100 -1,740 Descending FlightAware
07:40PM 34.3560 -116.8270 223° Southwest 394 453 24,300 -1,680 Descending FlightAware
07:41PM 34.3030 -116.8870 223° Southwest 384 442 22,800 -2,160 Descending FlightAware
07:42PM 34.2460 -116.9530 224° Southwest 364 419 21,300 -1,860 Descending FlightAware
07:42PM 34.2000 -117.0050 223° Southwest 349 402 20,200 -1,800 Descending FlightAware
07:43PM 34.1490 -117.0610 222° Southwest 361 415 18,900 -1,560 Descending FlightAware
07:44PM 34.1020 -117.1240 228° Southwest 342 394 18,000 -660 Descending FlightAware
07:44PM 34.0710 -117.1900 240° Southwest 323 372 18,000  Level FlightAware
07:45PM 34.0460 -117.2630 248° West 313 360 18,000 -780 Level FlightAware
07:46PM 34.0400 -117.3330 264° West 312 359 16,900 -1,500 Descending FlightAware
07:47PM 34.0340 -117.4000 264° West 305 351 16,000 -1,560 Descending FlightAware
07:47PM 34.0270 -117.4760 264° West 302 348 14,700 -1,920 Descending FlightAware
07:48PM 34.0210 -117.5430 264° West 304 350 13,300 -1,980 Descending FlightAware
07:49PM 34.0130 -117.6180 263° West 297 342 11,900 -1,080 Descending FlightAware
07:49PM 34.0140 -117.6660 271° West 289 333 11,900 -540 Level FlightAware
07:50PM 34.0170 -117.7490 273° West 286 329 11,200 -1,140 Descending FlightAware
07:51PM 34.0110 -117.8170 264° West 280 322 10,200 -1,500 Descending FlightAware
07:51PM 34.0060 -117.8540 261° West 276 318 9,500 -1,860 Descending FlightAware
07:52PM 34.0020 -117.9030 264° West 282 325 8,500 -1,800 Descending FlightAware
07:52PM 33.9980 -117.9470 264° West 281 323 7,700 -1,560 Descending FlightAware
07:53PM 33.9940 -117.9870 263° West 277 319 7,100 -1,440 Descending FlightAware
07:53PM 33.9890 -118.0330 263° West 272 313 6,400 -1,320 Descending FlightAware
07:54PM 33.9850 -118.0710 263° West 264 304 5,900 -900 Descending FlightAware
07:54PM 33.9810 -118.1130 263° West 247 284 5,600 -660 Descending FlightAware
07:54PM 33.9780 -118.1450 264° West 229 264 5,300 -600 Descending FlightAware
07:55PM 33.9760 -118.1750 265° West 206 237 5,100 -1,020 Descending FlightAware
07:55PM 33.9720 -118.2130 263° West 202 232 4,300 -1,500 Descending FlightAware
07:56PM 33.9690 -118.2420 263° West 203 234 3,600 -1,680 Descending FlightAware
07:56PM 33.9660 -118.2760 264° West 206 237 2,800 -1,560 Descending FlightAware
07:57PM 33.9630 -118.2970 260° West 193 222 2,300 -1,560 Descending FlightAware
07:57PM 33.9590 -118.3310 262° West 174 200 1,400 -1,020 Descending FlightAware
07:58PM 33.9550 -118.3710 263° West 160 184 1,000 -540 Descending FlightAware